createdAt,value
2024-01-16T00:00:35.897Z,7.8
2024-01-16T00:02:35.476Z,8.2
2024-01-16T00:04:35.049Z,8.2
2024-01-16T00:06:34.740Z,7.3
2024-01-16T00:08:34.377Z,8
2024-01-16T00:10:33.967Z,8
2024-01-16T00:12:33.584Z,7.6
2024-01-16T00:14:33.274Z,8.4
2024-01-16T00:16:32.911Z,7.3
2024-01-16T00:18:32.867Z,8
2024-01-16T00:20:32.246Z,7.2
2024-01-16T00:22:31.832Z,7.8
2024-01-16T00:24:31.488Z,7.9
2024-01-16T00:26:31.731Z,7.5
2024-01-16T00:28:30.841Z,10.5
2024-01-16T00:30:30.434Z,8.8
2024-01-16T00:32:30.172Z,9.5
2024-01-16T00:34:29.730Z,8.4
2024-01-16T00:36:29.349Z,7.7
2024-01-16T00:38:29.058Z,8.2
2024-01-16T00:40:28.629Z,7.5
2024-01-16T00:42:28.275Z,6.2
2024-01-16T00:44:28.005Z,7.1
2024-01-16T00:46:27.582Z,4.7
2024-01-16T00:48:27.419Z,6.3
2024-01-16T00:50:26.925Z,6.1
2024-01-16T00:52:26.572Z,6.6
2024-01-16T00:54:26.227Z,6.5
2024-01-16T00:56:25.899Z,5.7
2024-01-16T00:58:25.585Z,5.3
2024-01-16T01:00:25.122Z,5.5
2024-01-16T01:02:24.816Z,5.9
2024-01-16T01:04:24.467Z,7.4
2024-01-16T01:06:24.161Z,5.9
2024-01-16T01:08:23.696Z,6
2024-01-16T01:10:23.428Z,5.8
2024-01-16T01:12:23.015Z,4.9
2024-01-16T01:14:22.725Z,5.2
2024-01-16T01:16:22.313Z,4.1
2024-01-16T01:18:22.106Z,4.5
2024-01-16T01:20:21.673Z,4.7
2024-01-16T01:22:21.236Z,5.2
2024-01-16T01:24:20.843Z,4.4
2024-01-16T01:26:20.634Z,4.5
2024-01-16T01:28:20.171Z,4.3
2024-01-16T01:30:19.825Z,4.9
2024-01-16T01:32:19.411Z,4.5
2024-01-16T01:34:19.218Z,4.7
2024-01-16T01:36:18.762Z,3.9
2024-01-16T01:38:18.344Z,4.8
2024-01-16T01:40:17.977Z,5.3
2024-01-16T01:42:17.602Z,4.8
2024-01-16T01:44:17.602Z,5.2
2024-01-16T01:46:16.900Z,4.7
2024-01-16T01:48:16.653Z,4.4
2024-01-16T01:50:16.177Z,4.6
2024-01-16T01:52:15.816Z,3.8
2024-01-16T01:54:15.380Z,3.3
2024-01-16T01:56:15.259Z,3.1
2024-01-16T01:58:14.719Z,3.5
2024-01-16T02:00:14.337Z,2.5
2024-01-16T02:02:14.026Z,3.4
2024-01-16T02:04:13.856Z,2.9
2024-01-16T02:06:13.504Z,3.2
2024-01-16T02:08:12.973Z,3.4
2024-01-16T02:10:12.601Z,3.1
2024-01-16T02:12:12.197Z,3.4
2024-01-16T02:14:11.930Z,3.9
2024-01-16T02:16:11.434Z,3.7
2024-01-16T02:18:11.169Z,3.7
2024-01-16T02:20:10.809Z,3.6
2024-01-16T02:22:10.407Z,3.6
2024-01-16T02:24:10.080Z,4.6
2024-01-16T02:26:09.822Z,5.5
2024-01-16T02:28:09.399Z,5.5
2024-01-16T02:30:09.049Z,4.7
2024-01-16T02:32:08.652Z,4.8
2024-01-16T02:34:08.449Z,5.7
2024-01-16T02:36:07.952Z,5.3
2024-01-16T02:38:07.654Z,4.5
2024-01-16T02:40:07.370Z,4.8
2024-01-16T02:42:06.967Z,5.1
2024-01-16T02:44:06.606Z,5.3
2024-01-16T02:46:06.284Z,4.6
2024-01-16T02:48:05.948Z,4.8
2024-01-16T02:50:05.608Z,5.6
2024-01-16T02:52:05.169Z,5.4
2024-01-16T02:54:04.793Z,4.8
2024-01-16T02:56:04.526Z,3.4
2024-01-16T02:58:04.102Z,4.3
2024-01-16T03:00:03.708Z,3.9
2024-01-16T03:02:03.478Z,4.1
2024-01-16T03:04:03.029Z,4
2024-01-16T03:06:02.877Z,4.2
2024-01-16T03:08:02.310Z,4.6
2024-01-16T03:10:01.984Z,4.7
2024-01-16T03:12:01.620Z,3.7
2024-01-16T03:14:01.249Z,4.3
2024-01-16T03:16:00.944Z,3.8
2024-01-16T03:18:00.713Z,4.7
2024-01-16T03:20:00.237Z,6.5
2024-01-16T03:21:59.871Z,5.3
2024-01-16T03:23:59.476Z,13.6
2024-01-16T03:25:59.124Z,5.6
2024-01-16T03:27:58.780Z,6.4
2024-01-16T03:29:58.428Z,7.3
2024-01-16T03:31:58.080Z,13.7
2024-01-16T03:33:57.754Z,8.6
2024-01-16T03:35:57.473Z,5
2024-01-16T03:37:57.006Z,8
2024-01-16T03:39:56.637Z,5.8
2024-01-16T03:41:56.340Z,8.6
2024-01-16T03:43:55.969Z,17.8
2024-01-16T03:45:55.663Z,6.4
2024-01-16T03:47:55.371Z,12.8
2024-01-16T03:49:54.939Z,9
2024-01-16T03:51:54.548Z,5.4
2024-01-16T03:53:54.195Z,6.5
2024-01-16T03:55:53.821Z,4
2024-01-16T03:57:53.570Z,6.9
2024-01-16T03:59:53.247Z,9.7
2024-01-16T04:00:50.816Z,9.7
2024-01-16T04:01:31.003Z,9.7
2024-01-16T04:02:11.354Z,6.1
2024-01-16T04:03:52.540Z,7.4
2024-01-16T04:05:52.320Z,4.6
2024-01-16T04:07:51.823Z,5.2
2024-01-16T04:09:51.435Z,4
2024-01-16T04:11:51.227Z,5.1
2024-01-16T04:13:50.711Z,5.5
2024-01-16T04:15:50.456Z,7.6
2024-01-16T04:17:50.127Z,6.6
2024-01-16T04:19:49.764Z,6.3
2024-01-16T04:21:49.419Z,6.3
2024-01-16T04:23:49.083Z,6.9
2024-01-16T04:25:48.707Z,7.5
2024-01-16T04:27:48.398Z,8.2
2024-01-16T04:29:48.254Z,8.9
2024-01-16T04:31:47.721Z,10.7
2024-01-16T04:33:47.381Z,8.3
2024-01-16T04:35:47.044Z,9
2024-01-16T04:37:46.603Z,9.1
2024-01-16T04:39:46.237Z,6.1
2024-01-16T04:41:45.988Z,6.4
2024-01-16T04:43:45.547Z,5.8
2024-01-16T04:45:45.223Z,6.1
2024-01-16T04:47:45.026Z,6.8
2024-01-16T04:49:44.506Z,6.1
2024-01-16T04:51:44.184Z,4.7
2024-01-16T04:53:43.865Z,8.3
2024-01-16T04:55:43.512Z,6.4
2024-01-16T04:57:43.170Z,10.8
2024-01-16T04:59:42.902Z,5.9
2024-01-16T05:01:42.468Z,6.2
2024-01-16T05:03:42.176Z,6
2024-01-16T05:05:41.733Z,5.8
2024-01-16T05:07:41.397Z,6
2024-01-16T05:09:40.993Z,5.8
2024-01-16T05:11:40.682Z,6.8
2024-01-16T05:13:40.304Z,5.7
2024-01-16T05:15:39.941Z,6
2024-01-16T05:17:39.784Z,5.8
2024-01-16T05:19:39.336Z,6.1
2024-01-16T05:21:38.910Z,7.7
2024-01-16T05:23:38.564Z,7
2024-01-16T05:25:38.180Z,6.8
2024-01-16T05:27:37.847Z,5.2
2024-01-16T05:29:38.097Z,5
2024-01-16T05:31:37.064Z,5.4
2024-01-16T05:33:36.801Z,6
2024-01-16T05:35:36.417Z,5.2
2024-01-16T05:37:35.992Z,6.2
2024-01-16T05:39:35.649Z,5.8
2024-01-16T05:41:35.380Z,6
2024-01-16T05:43:34.962Z,6
2024-01-16T05:45:34.678Z,6.2
2024-01-16T05:47:34.329Z,6.3
2024-01-16T05:49:34.149Z,6.3
2024-01-16T05:51:33.589Z,6.1
2024-01-16T05:53:33.235Z,6.2
2024-01-16T05:55:32.875Z,6.5
2024-01-16T05:57:32.493Z,6.5
2024-01-16T05:59:32.197Z,7.3
2024-01-16T06:01:31.840Z,6.7
2024-01-16T06:03:31.412Z,10.7
2024-01-16T06:05:31.101Z,7.4
2024-01-16T06:07:30.729Z,8.9
2024-01-16T06:09:30.338Z,7.3
2024-01-16T06:11:30.088Z,9.7
2024-01-16T06:13:29.667Z,7.8
2024-01-16T06:15:29.267Z,7.5
2024-01-16T06:17:29.106Z,10.3
2024-01-16T06:19:28.601Z,12.3
2024-01-16T06:21:28.201Z,12.6
2024-01-16T06:23:27.903Z,9.1
2024-01-16T06:25:27.468Z,8.5
2024-01-16T06:27:27.151Z,8.4
2024-01-16T06:29:32.043Z,9.1
2024-01-16T06:31:26.461Z,9.2
2024-01-16T06:33:26.247Z,9.4
2024-01-16T06:35:25.716Z,8.5
2024-01-16T06:37:25.302Z,8.5
2024-01-16T06:39:24.966Z,8.5
2024-01-16T06:41:24.606Z,10.1
2024-01-16T06:43:24.198Z,13
2024-01-16T06:45:23.860Z,14.9
2024-01-16T06:47:23.585Z,12.1
2024-01-16T06:49:23.221Z,11.5
2024-01-16T06:51:22.764Z,12.6
2024-01-16T06:53:22.447Z,12.2
2024-01-16T06:55:22.084Z,10.2
2024-01-16T06:57:21.696Z,9.5
2024-01-16T06:59:21.374Z,10.1
2024-01-16T07:01:20.965Z,9.4
2024-01-16T07:03:20.568Z,8.4
2024-01-16T07:05:20.384Z,9.4
2024-01-16T07:07:19.872Z,9.8
2024-01-16T07:09:19.524Z,8.4
2024-01-16T07:11:19.966Z,8.6
2024-01-16T07:13:18.823Z,9.2
2024-01-16T07:15:18.423Z,9.9
2024-01-16T07:17:18.051Z,9.7
2024-01-16T07:19:17.677Z,9.9
2024-01-16T07:21:17.294Z,8.8
2024-01-16T07:23:16.945Z,8.3
2024-01-16T07:25:16.515Z,9.1
2024-01-16T07:27:16.195Z,11.5
2024-01-16T07:29:15.835Z,11.7
2024-01-16T07:31:15.410Z,11.2
2024-01-16T07:33:15.166Z,10.1
2024-01-16T07:35:14.825Z,8.1
2024-01-16T07:37:14.314Z,8.9
2024-01-16T07:39:13.953Z,10.9
2024-01-16T07:41:13.657Z,9.6
2024-01-16T07:43:13.255Z,11.8
2024-01-16T07:45:12.889Z,12.6
2024-01-16T07:47:12.557Z,15.2
2024-01-16T07:49:12.178Z,15.5
2024-01-16T07:51:11.821Z,17.2
2024-01-16T07:53:11.542Z,14.2
2024-01-16T07:55:11.103Z,14.6
2024-01-16T07:57:10.717Z,12.4
2024-01-16T07:59:10.462Z,10
2024-01-16T08:01:10.072Z,10.6
2024-01-16T08:03:09.733Z,11.4
2024-01-16T08:05:09.419Z,9
2024-01-16T08:07:08.896Z,8.2
2024-01-16T08:09:08.565Z,9.3
2024-01-16T08:11:08.267Z,8.6
2024-01-16T08:13:07.824Z,7.9
2024-01-16T08:15:07.517Z,11
2024-01-16T08:17:07.168Z,8.7
2024-01-16T08:19:06.809Z,8.7
2024-01-16T08:21:06.396Z,9.5
2024-01-16T08:23:06.064Z,10.6
2024-01-16T08:25:05.705Z,10.6
2024-01-16T08:27:05.385Z,8.9
2024-01-16T08:29:04.975Z,8.6
2024-01-16T08:31:04.673Z,10.2
2024-01-16T08:33:04.396Z,9.2
2024-01-16T08:35:04.115Z,7.9
2024-01-16T08:37:03.556Z,6.8
2024-01-16T08:39:03.211Z,6
2024-01-16T08:41:02.847Z,6.5
2024-01-16T08:43:02.543Z,6.5
2024-01-16T08:45:02.247Z,6.5
2024-01-16T08:47:01.773Z,5.6
2024-01-16T08:49:01.629Z,4.6
2024-01-16T08:51:02.050Z,6.3
2024-01-16T08:53:00.740Z,6.9
2024-01-16T08:55:00.387Z,7.7
2024-01-16T08:57:00.060Z,7.1
2024-01-16T08:58:59.630Z,4.7
2024-01-16T09:00:59.283Z,5.4
2024-01-16T09:02:59.822Z,6.5
2024-01-16T09:04:58.651Z,7.1
2024-01-16T09:06:58.292Z,8.3
2024-01-16T09:08:57.870Z,6.6
2024-01-16T09:10:57.517Z,6.4
2024-01-16T09:12:57.097Z,8.4
2024-01-16T09:14:56.813Z,15.6
2024-01-16T09:16:56.460Z,12.3
2024-01-16T09:18:56.113Z,14.2
2024-01-16T09:20:55.889Z,34.3
2024-01-16T09:22:55.319Z,18.9
2024-01-16T09:24:54.945Z,8.6
2024-01-16T09:26:54.661Z,12.2
2024-01-16T09:28:54.255Z,8.5
2024-01-16T09:30:53.964Z,12.3
2024-01-16T09:32:53.695Z,6.3
2024-01-16T09:34:53.252Z,6.9
2024-01-16T09:36:52.817Z,8.7
2024-01-16T09:38:52.492Z,11
2024-01-16T09:40:52.081Z,6.8
2024-01-16T09:42:51.713Z,7.4
2024-01-16T09:44:51.631Z,6.4
2024-01-16T09:46:51.138Z,7.5
2024-01-16T09:48:50.770Z,5
2024-01-16T09:50:50.317Z,5.8
2024-01-16T09:52:49.892Z,5.4
2024-01-16T09:54:49.590Z,6.2
2024-01-16T09:56:49.276Z,7.8
2024-01-16T09:58:48.836Z,6.1
2024-01-16T10:00:48.538Z,7.1
2024-01-16T10:02:49.661Z,7.7
2024-01-16T10:04:47.779Z,7.7
2024-01-16T10:06:47.598Z,6.5
2024-01-16T10:08:47.086Z,8.2
2024-01-16T10:10:49.314Z,8.3
2024-01-16T10:12:46.367Z,6.5
2024-01-16T10:14:46.031Z,6.4
2024-01-16T10:16:45.661Z,6.7
2024-01-16T10:18:45.474Z,5.4
2024-01-16T10:20:45.011Z,6
2024-01-16T10:22:44.588Z,6.1
2024-01-16T10:24:44.300Z,6.9
2024-01-16T10:26:43.949Z,8.9
2024-01-16T10:28:43.601Z,8.2
2024-01-16T10:30:43.291Z,7.2
2024-01-16T10:32:43.327Z,9.3
2024-01-16T10:34:42.697Z,10.6
2024-01-16T10:36:42.118Z,14.2
2024-01-16T10:38:41.849Z,12.5
2024-01-16T10:40:41.468Z,11.5
2024-01-16T10:42:41.154Z,8.4
2024-01-16T10:44:40.828Z,8.5
2024-01-16T10:46:40.366Z,11.8
2024-01-16T10:48:40.095Z,8.9
2024-01-16T10:50:40.051Z,12
2024-01-16T10:52:39.384Z,8.2
2024-01-16T10:54:38.964Z,11.4
2024-01-16T10:56:38.710Z,14.5
2024-01-16T10:58:38.304Z,10.6
2024-01-16T11:00:37.952Z,13.7
2024-01-16T11:02:37.680Z,8.2
2024-01-16T11:04:37.259Z,14.6
2024-01-16T11:06:37.118Z,16.5
2024-01-16T11:08:36.613Z,16.5
2024-01-16T11:10:36.207Z,7.7
2024-01-16T11:12:35.834Z,8.1
2024-01-16T11:14:35.553Z,8.3
2024-01-16T11:16:36.122Z,11.7
2024-01-16T11:18:34.912Z,12.7
2024-01-16T11:20:54.927Z,9.1
2024-01-16T11:22:34.211Z,9.8
2024-01-16T11:24:33.766Z,9.9
2024-01-16T11:26:35.926Z,8.3
2024-01-16T11:28:33.084Z,5.6
2024-01-16T11:30:32.952Z,7.3
2024-01-16T11:32:33.520Z,8.8
2024-01-16T11:34:32.198Z,20.3
2024-01-16T11:36:31.772Z,9.4
2024-01-16T11:38:31.411Z,8.1
2024-01-16T11:40:31.020Z,9.4
2024-01-16T11:42:30.821Z,9.7
2024-01-16T11:44:30.367Z,11.8
2024-01-16T11:46:29.996Z,10.8
2024-01-16T11:48:29.817Z,18.3
2024-01-16T11:50:29.506Z,9.5
2024-01-16T11:52:28.941Z,9
2024-01-16T11:54:28.626Z,9.1
2024-01-16T11:56:37.401Z,12.6
2024-01-16T11:58:27.910Z,45.3
2024-01-16T12:00:27.605Z,17.4
2024-01-16T12:02:27.201Z,14.3
2024-01-16T12:04:26.888Z,12
2024-01-16T12:06:26.557Z,25.6
2024-01-16T12:08:26.180Z,13.8
2024-01-16T12:10:25.786Z,30.3
2024-01-16T12:12:25.564Z,32.6
2024-01-16T12:14:25.133Z,23.2
2024-01-16T12:16:24.711Z,21
2024-01-16T12:18:33.942Z,56.1
2024-01-16T12:20:24.233Z,42.8
2024-01-16T12:22:23.677Z,45.7
2024-01-16T12:24:23.323Z,16.5
2024-01-16T12:26:23.045Z,17.5
2024-01-16T12:30:24.044Z,54.8
2024-01-16T12:32:22.016Z,26.3
2024-01-16T12:34:21.637Z,21
2024-01-16T12:36:22.367Z,24.8
2024-01-16T12:38:20.860Z,22.5
2024-01-16T12:40:20.461Z,19.4
2024-01-16T12:42:21.669Z,21.5
2024-01-16T12:44:19.852Z,28.5
2024-01-16T12:46:19.369Z,32.8
2024-01-16T12:48:19.155Z,22.1
2024-01-16T12:50:18.912Z,45.3
2024-01-16T12:52:18.310Z,14.9
2024-01-16T12:54:18.048Z,15.7
2024-01-16T12:56:18.288Z,15.7
2024-01-16T12:58:17.224Z,16.5
2024-01-16T13:00:16.953Z,10.6
2024-01-16T13:02:16.600Z,12.4
2024-01-16T13:04:17.205Z,33.5
2024-01-16T13:06:15.871Z,17.4
2024-01-16T13:08:15.416Z,23.1
2024-01-16T13:10:15.066Z,19.7
2024-01-16T13:12:14.748Z,17.5
2024-01-16T13:14:14.385Z,20.3
2024-01-16T13:16:13.992Z,12.9
2024-01-16T13:18:13.726Z,13.4
2024-01-16T13:20:13.304Z,18.2
2024-01-16T13:22:12.953Z,22.3
2024-01-16T13:24:12.570Z,14.1
2024-01-16T13:26:12.382Z,14.3
2024-01-16T13:28:11.861Z,16.1
2024-01-16T13:30:11.707Z,13.5
2024-01-16T13:32:11.173Z,13.3
2024-01-16T13:34:10.964Z,15.1
2024-01-16T13:36:10.513Z,12.1
2024-01-16T13:38:10.088Z,11.6
2024-01-16T13:40:09.826Z,15.6
2024-01-16T13:42:09.441Z,14.5
2024-01-16T13:44:09.101Z,14.3
2024-01-16T13:46:08.772Z,15.6
2024-01-16T13:48:08.560Z,21.2
2024-01-16T13:50:08.124Z,19.4
2024-01-16T13:52:07.737Z,17.3
2024-01-16T13:54:07.377Z,16
2024-01-16T13:56:07.028Z,18
2024-01-16T13:58:06.718Z,16.5
2024-01-16T14:00:06.380Z,16.3
2024-01-16T14:02:06.102Z,16.4
2024-01-16T14:04:05.682Z,17.7
2024-01-16T14:06:05.537Z,18.3
2024-01-16T14:08:04.978Z,17
2024-01-16T14:10:06.699Z,19.2
2024-01-16T14:12:04.316Z,26.6
2024-01-16T14:14:03.992Z,27.5
2024-01-16T14:16:03.599Z,29.5
2024-01-16T14:18:03.441Z,33.4
2024-01-16T14:20:02.910Z,26.5
2024-01-16T14:22:02.627Z,27
2024-01-16T14:24:02.251Z,27.6
2024-01-16T14:26:02.697Z,37.8
2024-01-16T14:28:01.594Z,64.6
2024-01-16T14:30:01.274Z,45.5
2024-01-16T14:32:00.850Z,29.1
2024-01-16T14:34:00.620Z,28.3
2024-01-16T14:36:02.239Z,26.5
2024-01-16T14:37:59.770Z,40
2024-01-16T14:39:59.438Z,41.9
2024-01-16T14:41:59.135Z,64.9
2024-01-16T14:43:58.685Z,123.6
2024-01-16T14:45:58.400Z,85.6
2024-01-16T14:47:58.120Z,56.1
2024-01-16T14:49:57.719Z,81.8
2024-01-16T14:51:57.336Z,50.2
2024-01-16T14:53:56.951Z,38.5
2024-01-16T14:55:56.593Z,28.1
2024-01-16T14:57:57.227Z,39.6
2024-01-16T14:59:56.011Z,23.3
2024-01-16T15:01:55.522Z,26.5
2024-01-16T15:03:55.171Z,24.9
2024-01-16T15:05:54.990Z,43.4
2024-01-16T15:07:54.419Z,46
2024-01-16T15:09:54.166Z,49.9
2024-01-16T15:11:53.810Z,44.9
2024-01-16T15:13:53.351Z,20.8
2024-01-16T15:15:52.966Z,18.4
2024-01-16T15:17:52.609Z,21.1
2024-01-16T15:19:52.297Z,23.6
2024-01-16T15:21:51.800Z,23.5
2024-01-16T15:23:51.553Z,26.7
2024-01-16T15:25:51.159Z,24.6
2024-01-16T15:27:50.715Z,25.6
2024-01-16T15:29:50.347Z,33.8
2024-01-16T15:31:50.008Z,29.5
2024-01-16T15:33:49.708Z,27.2
2024-01-16T15:35:49.221Z,34.3
2024-01-16T15:37:48.946Z,78.8
2024-01-16T15:39:48.446Z,76.1
2024-01-16T15:41:48.157Z,63
2024-01-16T15:43:47.703Z,77
2024-01-16T15:45:47.351Z,80.7
2024-01-16T15:47:47.036Z,41.3
2024-01-16T15:49:46.712Z,31
2024-01-16T15:51:46.237Z,60.6
2024-01-16T15:53:46.925Z,54.7
2024-01-16T15:55:45.492Z,69.8
2024-01-16T15:57:45.172Z,19
2024-01-16T15:59:44.802Z,42.6
2024-01-16T16:01:44.416Z,30.8
2024-01-16T16:03:44.001Z,59.2
2024-01-16T16:05:43.748Z,21.8
2024-01-16T16:07:43.276Z,76.2
2024-01-16T16:09:42.876Z,45.4
2024-01-16T16:11:42.521Z,50.2
2024-01-16T16:13:42.110Z,65
2024-01-16T16:15:41.745Z,33.4
2024-01-16T16:17:41.590Z,42.3
2024-01-16T16:19:41.076Z,121.9
2024-01-16T16:21:40.661Z,55.5
2024-01-16T16:23:40.270Z,58.6
2024-01-16T16:25:39.872Z,144.7
2024-01-16T16:27:39.530Z,33.4
2024-01-16T16:29:39.209Z,25.5
2024-01-16T16:31:38.741Z,22.5
2024-01-16T16:33:38.549Z,26.8
2024-01-16T16:35:38.056Z,24.1
2024-01-16T16:37:37.607Z,26.3
2024-01-16T16:39:37.259Z,29.9
2024-01-16T16:41:36.918Z,24.6
2024-01-16T16:43:36.468Z,23.3
2024-01-16T16:45:36.136Z,22.9
2024-01-16T16:47:35.834Z,21.9
2024-01-16T16:49:35.416Z,20.4
2024-01-16T16:51:34.998Z,24.6
2024-01-16T16:53:41.674Z,21.7
2024-01-16T16:55:34.214Z,25.4
2024-01-16T16:57:33.815Z,30.4
2024-01-16T16:59:33.518Z,29
2024-01-16T17:01:33.102Z,22.8
2024-01-16T17:03:32.705Z,22.4
2024-01-16T17:05:32.494Z,26.2
2024-01-16T17:07:32.014Z,21
2024-01-16T17:09:31.569Z,22.1
2024-01-16T17:11:31.238Z,27.5
2024-01-16T17:13:30.829Z,21.4
2024-01-16T17:15:30.451Z,31.5
2024-01-16T17:17:30.341Z,23.2
2024-01-16T17:19:29.758Z,21.5
2024-01-16T17:21:29.278Z,22.1
2024-01-16T17:23:29.029Z,33
2024-01-16T17:25:28.526Z,20.4
2024-01-16T17:27:28.191Z,19
2024-01-16T17:29:27.818Z,20.2
2024-01-16T17:31:27.403Z,23
2024-01-16T17:33:27.255Z,25.5
2024-01-16T17:35:26.757Z,28.1
2024-01-16T17:37:26.358Z,29.5
2024-01-16T17:39:25.922Z,28.5
2024-01-16T17:41:25.591Z,31.2
2024-01-16T17:43:25.211Z,34.6
2024-01-16T17:45:24.821Z,29
2024-01-16T17:47:24.478Z,30.1
2024-01-16T17:49:24.155Z,28.1
2024-01-16T17:51:23.716Z,28.8
2024-01-16T17:53:23.351Z,30.5
2024-01-16T17:55:22.959Z,43.6
2024-01-16T17:57:22.561Z,48.3
2024-01-16T17:59:22.262Z,32.2
2024-01-16T18:01:21.848Z,36.2
2024-01-16T18:03:32.098Z,32
2024-01-16T18:05:21.155Z,30.1
2024-01-16T18:07:20.690Z,31.8
2024-01-16T18:09:20.433Z,28.7
2024-01-16T18:11:20.015Z,28.6
2024-01-16T18:13:19.578Z,25.9
2024-01-16T18:15:19.220Z,26.5
2024-01-16T18:17:18.942Z,24.9
2024-01-16T18:19:18.574Z,23.6
2024-01-16T18:21:18.100Z,24.3
2024-01-16T18:23:17.746Z,24.4
2024-01-16T18:25:17.393Z,27.9
2024-01-16T18:27:17.001Z,24.1
2024-01-16T18:29:16.670Z,29
2024-01-16T18:31:18.195Z,20.7
2024-01-16T18:33:16.035Z,20.1
2024-01-16T18:35:15.547Z,20.2
2024-01-16T18:37:15.153Z,17.5
2024-01-16T18:39:14.780Z,18.4
2024-01-16T18:41:14.461Z,27.7
2024-01-16T18:43:14.053Z,16
2024-01-16T18:45:13.659Z,31.4
2024-01-16T18:47:13.263Z,39.5
2024-01-16T18:49:13.023Z,171.4
2024-01-16T18:51:12.553Z,49.8
2024-01-16T18:53:12.176Z,65.6
2024-01-16T18:55:11.801Z,19.5
2024-01-16T18:57:11.422Z,14
2024-01-16T18:59:11.051Z,12.7
2024-01-16T19:01:10.709Z,12.9
2024-01-16T19:03:10.425Z,13.3
2024-01-16T19:05:09.940Z,16.9
2024-01-16T19:07:09.510Z,21.3
2024-01-16T19:09:09.131Z,30.4
2024-01-16T19:11:08.741Z,37
2024-01-16T19:13:08.335Z,46.4
2024-01-16T19:15:08.143Z,41.3
2024-01-16T19:17:07.568Z,47.1
2024-01-16T19:19:07.277Z,50.4
2024-01-16T19:21:06.889Z,44.3
2024-01-16T19:23:06.433Z,63.3
2024-01-16T19:25:06.039Z,33.1
2024-01-16T19:27:05.799Z,30.8
2024-01-16T19:29:05.294Z,29.7
2024-01-16T19:31:04.957Z,27.4
2024-01-16T19:33:04.574Z,27.8
2024-01-16T19:35:04.076Z,80.6
2024-01-16T19:37:03.653Z,39.7
2024-01-16T19:39:03.382Z,28.8
2024-01-16T19:41:02.951Z,30.7
2024-01-16T19:43:02.515Z,29.7
2024-01-16T19:45:02.229Z,31.7
2024-01-16T19:47:01.697Z,31.7
2024-01-16T19:49:01.503Z,26.1
2024-01-16T19:51:01.247Z,24.8
2024-01-16T19:53:00.626Z,22.4
2024-01-16T19:55:00.211Z,22.7
2024-01-16T19:56:59.890Z,18.1
2024-01-16T19:58:59.431Z,19.4
2024-01-16T20:00:59.115Z,18.6
2024-01-16T20:02:58.755Z,24.8
2024-01-16T20:04:58.309Z,41.4
2024-01-16T20:06:57.896Z,50.2
2024-01-16T20:08:57.498Z,48.8
2024-01-16T20:10:57.049Z,27.8
2024-01-16T20:12:56.665Z,15.2
2024-01-16T20:14:56.520Z,17.7
2024-01-16T20:16:55.881Z,16.4
2024-01-16T20:18:55.660Z,16.1
2024-01-16T20:20:55.121Z,17.7
2024-01-16T20:22:54.694Z,19.2
2024-01-16T20:24:54.635Z,17.9
2024-01-16T20:26:54.002Z,20.2
2024-01-16T20:28:53.581Z,22.8
2024-01-16T20:30:53.229Z,24.2
2024-01-16T20:32:55.901Z,18.8
2024-01-16T20:34:52.539Z,17.9
2024-01-16T20:36:51.992Z,17
2024-01-16T20:38:51.648Z,17.5
2024-01-16T20:40:51.233Z,18.7
2024-01-16T20:42:50.822Z,16.3
2024-01-16T20:44:50.502Z,17.3
2024-01-16T20:46:50.064Z,16.8
2024-01-16T20:48:49.806Z,16.8
2024-01-16T20:50:49.263Z,16.4
2024-01-16T20:52:48.936Z,17.7
2024-01-16T20:54:48.491Z,19.5
2024-01-16T20:56:48.204Z,32.1
2024-01-16T20:58:47.756Z,26.1
2024-01-16T21:00:47.375Z,35
2024-01-16T21:02:47.036Z,30.6
2024-01-16T21:04:46.617Z,42.2
2024-01-16T21:06:46.327Z,33.5
2024-01-16T21:08:45.837Z,30.6
2024-01-16T21:10:45.412Z,29.5
2024-01-16T21:12:45.048Z,29.1
2024-01-16T21:14:44.628Z,23.2
2024-01-16T21:16:44.207Z,20.1
2024-01-16T21:18:44.022Z,18.8
2024-01-16T21:20:43.427Z,18.3
2024-01-16T21:22:42.975Z,20.6
2024-01-16T21:24:42.622Z,26.6
2024-01-16T21:26:42.293Z,23.7
2024-01-16T21:28:41.858Z,22.2
2024-01-16T21:30:41.467Z,19.2
2024-01-16T21:32:41.124Z,18.5
2024-01-16T21:34:40.675Z,18.5
2024-01-16T21:36:40.252Z,18.2
2024-01-16T21:38:39.945Z,17
2024-01-16T21:40:39.531Z,19.2
2024-01-16T21:42:39.170Z,17.8
2024-01-16T21:44:38.716Z,20
2024-01-16T21:46:38.274Z,20.4
2024-01-16T21:48:37.965Z,18.8
2024-01-16T21:50:38.538Z,19.6
2024-01-16T21:52:37.066Z,19
2024-01-16T21:54:36.656Z,19.9
2024-01-16T21:56:36.288Z,20.3
2024-01-16T21:58:35.874Z,22
2024-01-16T22:00:35.591Z,20.9
2024-01-16T22:02:35.199Z,21.5
2024-01-16T22:04:34.728Z,22.3
2024-01-16T22:06:34.348Z,23.9
2024-01-16T22:08:33.977Z,24.6
2024-01-16T22:10:33.558Z,24.9
2024-01-16T22:12:33.114Z,24.5
2024-01-16T22:14:32.754Z,25.2
2024-01-16T22:16:32.370Z,27.9
2024-01-16T22:18:32.058Z,24.3
2024-01-16T22:20:31.570Z,24.3
2024-01-16T22:22:31.142Z,26.8
2024-01-16T22:24:30.747Z,27.9
2024-01-16T22:26:30.377Z,25.1
2024-01-16T22:28:29.949Z,22.9
2024-01-16T22:30:29.593Z,18.3
2024-01-16T22:32:29.179Z,19.5
2024-01-16T22:34:28.831Z,17.3
2024-01-16T22:36:28.383Z,17.5
2024-01-16T22:38:28.027Z,21.6
2024-01-16T22:40:27.576Z,26.1
2024-01-16T22:42:27.152Z,29
2024-01-16T22:44:26.698Z,29.9
2024-01-16T22:46:26.359Z,26
2024-01-16T22:48:25.995Z,22.7
2024-01-16T22:50:25.534Z,19.6
2024-01-16T22:52:25.124Z,19
2024-01-16T22:54:24.699Z,18.8
2024-01-16T22:56:24.397Z,19.6
2024-01-16T22:58:23.910Z,18.9
2024-01-16T23:00:23.554Z,15.7
2024-01-16T23:02:23.162Z,17.1
2024-01-16T23:04:22.802Z,16.3
2024-01-16T23:06:22.564Z,15
2024-01-16T23:08:22.050Z,16.4
2024-01-16T23:10:21.640Z,21
2024-01-16T23:12:21.222Z,16.7
2024-01-16T23:14:20.849Z,17.8
2024-01-16T23:16:20.478Z,14.1
2024-01-16T23:18:20.239Z,16
2024-01-16T23:20:19.705Z,13.7
2024-01-16T23:22:19.254Z,13.7
2024-01-16T23:24:18.835Z,10.8
2024-01-16T23:28:18.059Z,12.1
2024-01-16T23:30:17.716Z,12.9
2024-01-16T23:32:17.208Z,10.5
2024-01-16T23:34:16.870Z,11.5
2024-01-16T23:36:16.493Z,12.3
2024-01-16T23:38:16.023Z,11.2
2024-01-16T23:40:15.650Z,11.2
2024-01-16T23:42:15.257Z,10.9
2024-01-16T23:44:14.813Z,12.6
2024-01-16T23:46:14.396Z,11.7
2024-01-16T23:48:14.185Z,12.5
2024-01-16T23:50:13.621Z,11.2
2024-01-16T23:52:13.228Z,11.8
2024-01-16T23:54:12.825Z,12.8
2024-01-16T23:56:12.451Z,13.2
2024-01-16T23:58:11.969Z,14.3
